createdAt,value
2022-10-11T00:06:21.036Z,13.810000000000002
2022-10-11T00:21:37.999Z,13.65
2022-10-11T00:36:53.975Z,13.5
2022-10-11T00:52:10.917Z,13.429999999999998
2022-10-11T01:07:26.911Z,13.350000000000001
2022-10-11T01:22:42.886Z,13.26
2022-10-11T01:37:59.881Z,13.170000000000002
2022-10-11T01:53:17.805Z,13.24
2022-10-11T02:08:34.825Z,13.050000000000002
2022-10-11T02:23:50.756Z,13.1
2022-10-11T02:39:06.779Z,12.959999999999997
2022-10-11T02:54:23.719Z,12.85
2022-10-11T03:09:39.707Z,12.81
2022-10-11T03:24:59.653Z,12.829999999999998
2022-10-11T03:40:12.663Z,12.649999999999999
2022-10-11T03:55:30.689Z,12.63
2022-10-11T04:10:47.648Z,12.71
2022-10-11T04:26:03.967Z,12.94
2022-10-11T04:41:19.547Z,12.980000000000002
2022-10-11T04:56:36.528Z,12.980000000000002
2022-10-11T05:11:52.511Z,12.94
2022-10-11T05:27:09.455Z,12.900000000000002
2022-10-11T05:42:26.471Z,12.81
2022-10-11T05:57:44.446Z,12.579999999999998
2022-10-11T06:13:00.398Z,12.540000000000001
2022-10-11T06:28:16.400Z,12.57
2022-10-11T06:43:32.345Z,12.640000000000002
2022-10-11T06:58:49.317Z,13.58
2022-10-11T07:14:05.293Z,14.86
2022-10-11T07:29:22.269Z,14.000000000000002
2022-10-11T07:44:39.201Z,15.020000000000001
2022-10-11T07:59:56.224Z,15.409999999999998
2022-10-11T08:15:12.144Z,15.869999999999997
2022-10-11T08:30:28.153Z,16.591702953962155
2022-10-11T08:45:44.095Z,16.233458871812328
2022-10-11T09:01:01.197Z,15.315908490564716
2022-10-11T09:16:17.030Z,15.362906455852697
2022-10-11T09:31:33.994Z,15.116919397753064
2022-10-11T09:46:50.985Z,14.558783087656595
2022-10-11T10:02:08.032Z,15.128732194473018
2022-10-11T10:17:23.910Z,14.583514611938297
2022-10-11T10:32:40.232Z,14.844194463680402
2022-10-11T10:47:55.847Z,14.576031274637852
2022-10-11T11:03:12.804Z,14.451824250028404
2022-10-11T11:03:57.684Z,14.451824250028404
2022-10-11T11:18:30.782Z,14.379659999536969
2022-10-11T11:33:48.898Z,14.304680414744741
2022-10-11T11:49:05.592Z,13.70209885883747
2022-10-11T12:04:21.675Z,13.99214204793216
2022-10-11T12:19:37.681Z,13.974633135114649
2022-10-11T12:34:54.630Z,14.116772597704891
2022-10-11T12:50:11.623Z,14.11380221888536
2022-10-11T13:05:28.548Z,14.23806244786781
2022-10-11T13:20:44.554Z,13.924807078362479
2022-10-11T13:36:00.541Z,13.591362179311668
2022-10-11T13:51:16.492Z,14.024652606369418
2022-10-11T14:06:33.452Z,13.701945251620199
2022-10-11T14:21:50.418Z,14.014032266269025
2022-10-11T14:37:07.401Z,14.07974012925019
2022-10-11T14:52:24.346Z,14.480321672014705
2022-10-11T15:07:41.348Z,14.420339339728825
2022-10-11T15:22:57.372Z,14.447865284246348
2022-10-11T15:38:13.257Z,14.876961303958836
2022-10-11T15:53:29.224Z,14.917236396538083
2022-10-11T16:08:46.203Z,15.158285514718164
2022-10-11T16:24:03.134Z,15.328521185310072
2022-10-11T16:39:20.138Z,15.322473984977547
2022-10-11T16:54:36.135Z,15.544288590426431
2022-10-11T17:09:53.090Z,15.718068814225807
2022-10-11T17:25:09.015Z,15.902710432061976
2022-10-11T17:40:25.015Z,16.399845580750995
2022-10-11T17:55:37.953Z,17.21125356412821
2022-10-11T18:10:53.959Z,17.429849901472956
2022-10-11T18:26:09.899Z,17.970000000000002
2022-10-11T18:41:25.905Z,17.839999999999996
2022-10-11T18:56:42.820Z,17.549999999999997
2022-10-11T19:11:59.832Z,17.25
2022-10-11T19:27:16.770Z,17.1
2022-10-11T19:42:33.135Z,17.030000000000005
2022-10-11T19:57:49.725Z,16.539999999999996
2022-10-11T20:13:05.722Z,16.56
2022-10-11T20:28:21.765Z,16.259999999999998
2022-10-11T20:43:38.660Z,16.059999999999995
2022-10-11T20:58:56.649Z,15.980000000000002
2022-10-11T21:14:13.584Z,15.69
2022-10-11T21:29:29.583Z,15.92
2022-10-11T21:44:45.534Z,15.58
2022-10-11T22:00:02.540Z,15.44
2022-10-11T22:15:18.471Z,15.35
2022-10-11T22:30:34.477Z,15.25
2022-10-11T22:45:51.502Z,15.179999999999998
2022-10-11T23:01:09.379Z,15.020000000000001
2022-10-11T23:16:26.343Z,15.009999999999998
2022-10-11T23:31:42.308Z,15.03
2022-10-11T23:46:58.299Z,14.879999999999999
